createdAt,value
2022-12-12T00:00:36.289Z,97080.97
2022-12-12T00:03:04.137Z,97086.91
2022-12-12T00:05:31.735Z,97086.91
2022-12-12T00:07:59.248Z,97088.47
2022-12-12T00:10:26.773Z,97088.69
2022-12-12T00:12:54.236Z,97082.88
2022-12-12T00:15:21.887Z,97082.47
2022-12-12T00:17:50.718Z,97092.47
2022-12-12T00:20:18.294Z,97092.88
2022-12-12T00:22:45.731Z,97083.34
2022-12-12T00:25:13.891Z,97089.00
2022-12-12T00:27:41.562Z,97095.22
2022-12-12T00:30:10.057Z,97097.31
2022-12-12T00:32:37.518Z,97089.16
2022-12-12T00:35:07.341Z,97093.81
2022-12-12T00:37:34.786Z,97086.63
2022-12-12T00:40:02.367Z,97090.81
2022-12-12T00:42:29.907Z,97097.03
2022-12-12T00:44:57.376Z,97092.19
2022-12-12T00:47:24.807Z,97099.66
2022-12-12T00:49:52.256Z,97092.72
2022-12-12T00:52:21.064Z,97093.00
2022-12-12T00:54:51.552Z,97089.97
2022-12-12T00:57:18.994Z,97095.22
2022-12-12T00:59:46.507Z,97089.28
2022-12-12T01:02:14.008Z,97096.59
2022-12-12T01:04:41.512Z,97093.56
2022-12-12T01:07:09.007Z,97101.47
2022-12-12T01:09:37.834Z,97107.13
2022-12-12T01:12:05.540Z,97102.00
2022-12-12T01:14:33.013Z,97107.25
2022-12-12T01:17:00.458Z,97104.28
2022-12-12T01:19:27.907Z,97106.56
2022-12-12T01:21:55.603Z,97100.03
2022-12-12T01:24:23.124Z,97104.88
2022-12-12T01:26:51.993Z,97108.78
2022-12-12T01:29:19.440Z,97102.22
2022-12-12T01:31:46.979Z,97099.25
2022-12-12T01:34:14.579Z,97092.38
2022-12-12T01:36:42.061Z,97101.41
2022-12-12T01:39:09.512Z,97112.13
2022-12-12T01:41:37.219Z,97116.00
2022-12-12T01:44:40.200Z,97119.88
2022-12-12T01:47:07.963Z,97118.19
2022-12-12T01:49:36.388Z,97111.38
2022-12-12T01:52:06.984Z,97118.19
2022-12-12T01:54:37.133Z,97119.16
2022-12-12T01:57:09.452Z,97120.34
2022-12-12T01:59:39.105Z,97115.66
2022-12-12T02:02:07.343Z,97124.22
2022-12-12T02:04:35.758Z,97129.94
2022-12-12T02:07:04.631Z,97129.16
2022-12-12T02:09:34.432Z,97131.34
2022-12-12T02:12:01.883Z,97130.63
2022-12-12T02:14:34.119Z,97132.81
2022-12-12T02:17:37.420Z,97136.22
2022-12-12T02:20:37.735Z,97127.00
2022-12-12T02:23:58.391Z,97132.72
2022-12-12T02:26:50.231Z,97130.28
2022-12-12T02:29:37.161Z,97133.38
2022-12-12T02:32:16.322Z,97144.25
2022-12-12T02:34:50.192Z,97140.41
2022-12-12T02:37:24.587Z,97134.94
2022-12-12T02:40:00.795Z,97141.44
2022-12-12T02:42:38.190Z,97143.97
2022-12-12T02:45:15.134Z,97140.50
2022-12-12T02:47:49.039Z,97142.94
2022-12-12T02:50:21.474Z,97141.94
2022-12-12T02:52:49.668Z,97142.19
2022-12-12T02:55:18.202Z,97146.88
2022-12-12T02:57:45.990Z,97146.16
2022-12-12T03:00:15.725Z,97143.88
2022-12-12T03:03:34.472Z,97151.72
2022-12-12T03:06:39.387Z,97152.91
2022-12-12T03:09:16.766Z,97151.56
2022-12-12T03:11:54.716Z,97156.44
2022-12-12T03:14:28.079Z,97158.13
2022-12-12T03:17:05.087Z,97157.97
2022-12-12T03:19:42.440Z,97159.25
2022-12-12T03:22:15.315Z,97154.97
2022-12-12T03:24:49.584Z,97154.00
2022-12-12T03:27:22.292Z,97160.22
2022-12-12T03:29:54.926Z,97153.81
2022-12-12T03:32:26.581Z,97146.41
2022-12-12T03:34:59.854Z,97153.13
2022-12-12T03:37:30.935Z,97154.25
2022-12-12T03:40:01.947Z,97160.63
2022-12-12T03:42:37.897Z,97158.22
2022-12-12T03:45:12.667Z,97154.19
2022-12-12T03:47:47.010Z,97153.72
2022-12-12T03:50:20.444Z,97155.81
2022-12-12T03:52:52.925Z,97156.50
2022-12-12T03:55:25.150Z,97162.97
2022-12-12T03:57:57.724Z,97163.97
2022-12-12T04:00:25.373Z,97164.19
2022-12-12T04:02:59.502Z,97163.22
2022-12-12T04:05:36.535Z,97157.03
2022-12-12T04:08:09.029Z,97162.81
2022-12-12T04:11:00.786Z,97162.22
2022-12-12T04:13:33.778Z,97164.47
2022-12-12T04:16:04.883Z,97167.81
2022-12-12T04:18:39.348Z,97165.06
2022-12-12T04:21:35.803Z,97158.34
2022-12-12T04:24:11.397Z,97171.38
2022-12-12T04:26:42.173Z,97165.38
2022-12-12T04:29:23.080Z,97169.69
2022-12-12T04:31:57.805Z,97171.00
2022-12-12T04:34:33.553Z,97179.63
2022-12-12T04:37:04.421Z,97176.06
2022-12-12T04:39:33.812Z,97178.94
2022-12-12T04:42:04.885Z,97183.06
2022-12-12T04:44:34.464Z,97179.91
2022-12-12T04:47:04.043Z,97183.84
2022-12-12T04:49:34.423Z,97182.53
2022-12-12T04:52:07.360Z,97188.16
2022-12-12T04:54:40.804Z,97180.06
2022-12-12T04:57:12.706Z,97192.47
2022-12-12T04:59:40.314Z,97185.47
2022-12-12T05:02:16.339Z,97185.59
2022-12-12T05:04:50.643Z,97181.00
2022-12-12T05:07:28.614Z,97191.78
2022-12-12T05:09:56.415Z,97192.41
2022-12-12T05:12:23.879Z,97193.47
2022-12-12T05:14:51.496Z,97195.72
2022-12-12T05:17:27.216Z,97194.91
2022-12-12T05:19:54.655Z,97199.16
2022-12-12T05:22:23.448Z,97197.72
2022-12-12T05:24:50.876Z,97191.84
2022-12-12T05:27:18.378Z,97194.25
2022-12-12T05:29:45.808Z,97201.84
2022-12-12T05:32:13.244Z,97201.19
2022-12-12T05:34:40.670Z,97208.34
2022-12-12T05:37:08.150Z,97206.88
2022-12-12T05:39:37.263Z,97202.41
2022-12-12T05:42:04.850Z,97203.41
2022-12-12T05:44:32.320Z,97202.44
2022-12-12T05:46:59.936Z,97211.81
2022-12-12T05:49:27.360Z,97208.09
2022-12-12T05:51:54.788Z,97210.28
2022-12-12T05:54:22.283Z,97214.16
2022-12-12T05:56:51.122Z,97211.81
2022-12-12T05:59:18.567Z,97214.94
2022-12-12T06:01:46.053Z,97210.66
2022-12-12T06:04:13.538Z,97220.28
2022-12-12T06:06:41.273Z,97218.75
2022-12-12T06:09:08.770Z,97216.75
2022-12-12T06:11:36.312Z,97217.75
2022-12-12T06:14:05.098Z,97216.22
2022-12-12T06:16:32.540Z,97221.19
2022-12-12T06:18:59.994Z,97213.56
2022-12-12T06:21:27.508Z,97218.56
2022-12-12T06:23:55.024Z,97217.59
2022-12-12T06:26:22.573Z,97222.72
2022-12-12T06:28:50.004Z,97223.41
2022-12-12T06:31:19.257Z,97232.53
2022-12-12T06:33:46.627Z,97226.72
2022-12-12T06:36:16.607Z,97224.38
2022-12-12T06:38:44.162Z,97230.22
2022-12-12T06:41:13.543Z,97234.09
2022-12-12T06:43:41.211Z,97240.69
2022-12-12T06:46:13.621Z,97246.63
2022-12-12T06:48:42.540Z,97248.09
2022-12-12T06:51:12.150Z,97251.69
2022-12-12T06:53:39.632Z,97246.50
2022-12-12T06:56:08.721Z,97245.16
2022-12-12T06:58:36.688Z,97237.53
2022-12-12T07:01:05.375Z,97245.16
2022-12-12T07:03:33.099Z,97248.63
2022-12-12T07:06:02.040Z,97250.97
2022-12-12T07:08:29.574Z,97245.44
2022-12-12T07:10:58.412Z,97253.03
2022-12-12T07:13:25.849Z,97251.41
2022-12-12T07:15:56.377Z,97253.88
2022-12-12T07:18:24.000Z,97257.50
2022-12-12T07:20:51.512Z,97251.25
2022-12-12T07:23:20.967Z,97257.63
2022-12-12T07:25:48.485Z,97262.47
2022-12-12T07:28:16.711Z,97257.22
2022-12-12T07:30:45.881Z,97264.81
2022-12-12T07:33:16.512Z,97267.31
2022-12-12T07:35:44.760Z,97262.34
2022-12-12T07:38:12.576Z,97269.97
2022-12-12T07:40:41.404Z,97275.50
2022-12-12T07:43:09.085Z,97267.44
2022-12-12T07:45:36.519Z,97278.25
2022-12-12T07:48:04.163Z,97276.59
2022-12-12T07:50:32.624Z,97279.53
2022-12-12T07:53:00.054Z,97279.53
2022-12-12T07:55:27.591Z,97280.19
2022-12-12T07:57:56.556Z,97286.28
2022-12-12T08:00:24.114Z,97282.69
2022-12-12T08:02:51.543Z,97282.69
2022-12-12T08:05:19.266Z,97290.59
2022-12-12T08:07:47.022Z,97288.78
2022-12-12T08:10:14.955Z,97293.81
2022-12-12T08:12:42.392Z,97301.41
2022-12-12T08:15:16.421Z,97305.72
2022-12-12T08:17:44.120Z,97302.66
2022-12-12T08:20:12.347Z,97309.53
2022-12-12T08:22:39.765Z,97312.78
2022-12-12T08:25:08.535Z,97305.53
2022-12-12T08:27:36.042Z,97317.50
2022-12-12T08:30:03.591Z,97319.63
2022-12-12T08:32:32.483Z,97326.03
2022-12-12T08:35:00.649Z,97320.72
2022-12-12T08:37:28.253Z,97305.91
2022-12-12T08:39:55.985Z,97316.59
2022-12-12T08:42:23.515Z,97312.69
2022-12-12T08:44:51.109Z,97311.06
2022-12-12T08:47:18.594Z,97313.44
2022-12-12T08:49:47.624Z,97315.13
2022-12-12T08:52:15.077Z,97315.34
2022-12-12T08:54:42.525Z,97314.66
2022-12-12T08:57:10.010Z,97323.09
2022-12-12T08:59:37.448Z,97324.06
2022-12-12T09:02:04.955Z,97321.59
2022-12-12T09:04:32.641Z,97326.75
2022-12-12T09:07:08.100Z,97340.84
2022-12-12T09:09:35.889Z,97343.84
2022-12-12T09:12:03.327Z,97339.06
2022-12-12T09:14:30.910Z,97346.78
2022-12-12T09:16:58.355Z,97335.34
2022-12-12T09:19:25.891Z,97339.88
2022-12-12T09:21:53.315Z,97340.19
2022-12-12T09:24:23.917Z,97349.88
2022-12-12T09:26:51.404Z,97348.75
2022-12-12T09:29:19.241Z,97358.78
2022-12-12T09:31:46.906Z,97358.66
2022-12-12T09:34:14.565Z,97350.50
2022-12-12T09:36:42.032Z,97342.84
2022-12-12T09:39:09.483Z,97344.22
2022-12-12T09:41:38.392Z,97345.31
2022-12-12T09:44:08.321Z,97344.19
2022-12-12T09:46:38.623Z,97354.81
2022-12-12T09:49:13.859Z,97349.88
2022-12-12T09:51:43.477Z,97351.28
2022-12-12T09:54:14.891Z,97350.91
2022-12-12T09:56:52.803Z,97368.13
2022-12-12T09:59:26.545Z,97366.28
2022-12-12T10:02:29.686Z,97365.16
2022-12-12T10:05:02.149Z,97359.41
2022-12-12T10:07:37.015Z,97363.59
2022-12-12T10:10:14.151Z,97363.94
2022-12-12T10:12:43.777Z,97379.06
2022-12-12T10:15:24.582Z,97379.31
2022-12-12T10:17:53.890Z,97372.59
2022-12-12T10:20:22.535Z,97371.44
2022-12-12T10:22:57.253Z,97372.81
2022-12-12T10:25:29.519Z,97362.47
2022-12-12T10:28:10.943Z,97353.91
2022-12-12T10:30:52.495Z,97367.31
2022-12-12T10:33:32.024Z,97359.56
2022-12-12T10:36:10.208Z,97359.28
2022-12-12T10:38:54.531Z,97357.31
2022-12-12T10:41:30.947Z,97377.25
2022-12-12T10:44:05.771Z,97367.63
2022-12-12T10:46:39.943Z,97368.94
2022-12-12T10:49:16.026Z,97374.47
2022-12-12T10:51:45.303Z,97361.53
2022-12-12T10:54:15.831Z,97362.25
2022-12-12T10:57:05.345Z,97362.59
2022-12-12T10:59:43.716Z,97350.59
2022-12-12T11:02:30.472Z,97350.78
2022-12-12T11:05:07.756Z,97356.00
2022-12-12T11:07:39.329Z,97347.63
2022-12-12T11:10:29.253Z,97343.53
2022-12-12T11:13:03.078Z,97346.56
2022-12-12T11:15:39.417Z,97347.78
2022-12-12T11:18:12.366Z,97350.28
2022-12-12T11:20:45.660Z,97349.72
2022-12-12T11:23:18.944Z,97351.25
2022-12-12T11:25:47.009Z,97353.56
2022-12-12T11:28:23.324Z,97351.66
2022-12-12T11:30:54.988Z,97347.66
2022-12-12T11:33:26.748Z,97344.84
2022-12-12T11:35:56.322Z,97338.69
2022-12-12T11:38:28.565Z,97336.41
2022-12-12T11:41:01.892Z,97341.44
2022-12-12T11:43:30.846Z,97346.09
2022-12-12T11:46:02.140Z,97336.31
2022-12-12T11:48:35.755Z,97341.66
2022-12-12T11:51:04.561Z,97336.31
2022-12-12T11:53:39.499Z,97340.06
2022-12-12T11:56:26.163Z,97349.19
2022-12-12T11:59:03.711Z,97346.38
2022-12-12T12:01:41.935Z,97350.25
2022-12-12T12:04:20.014Z,97348.63
2022-12-12T12:07:07.540Z,97354.38
2022-12-12T12:09:46.275Z,97350.53
2022-12-12T12:12:18.455Z,97342.28
2022-12-12T12:15:07.763Z,97351.53
2022-12-12T12:18:10.971Z,97352.00
2022-12-12T12:20:55.513Z,97339.94
2022-12-12T12:23:41.186Z,97345.63
2022-12-12T12:26:17.938Z,97343.06
2022-12-12T12:29:08.234Z,97334.41
2022-12-12T12:31:47.543Z,97339.88
2022-12-12T12:34:23.068Z,97335.56
2022-12-12T12:36:59.525Z,97339.34
2022-12-12T12:39:42.594Z,97333.84
2022-12-12T12:42:24.855Z,97334.66
2022-12-12T12:44:58.411Z,97339.94
2022-12-12T12:47:38.420Z,97338.00
2022-12-12T12:50:17.114Z,97335.63
2022-12-12T12:52:52.655Z,97332.59
2022-12-12T12:55:25.311Z,97340.03
2022-12-12T12:57:53.367Z,97336.59
2022-12-12T13:00:23.977Z,97326.47
2022-12-12T13:02:58.721Z,97329.78
2022-12-12T13:05:35.229Z,97331.84
2022-12-12T13:08:14.821Z,97325.94
2022-12-12T13:10:47.003Z,97328.84
2022-12-12T13:13:22.535Z,97334.41
2022-12-12T13:15:53.936Z,97334.66
2022-12-12T13:18:21.411Z,97332.56
2022-12-12T13:20:56.506Z,97330.94
2022-12-12T13:23:46.758Z,97332.03
2022-12-12T13:26:21.255Z,97342.56
2022-12-12T13:28:52.862Z,97344.19
2022-12-12T13:31:39.191Z,97334.78
2022-12-12T13:34:10.980Z,97344.91
2022-12-12T13:36:44.202Z,97348.25
2022-12-12T13:39:25.991Z,97344.66
2022-12-12T13:42:00.204Z,97335.34
2022-12-12T13:44:40.501Z,97340.72
2022-12-12T13:47:34.007Z,97333.56
2022-12-12T13:50:07.455Z,97339.44
2022-12-12T13:52:40.935Z,97336.16
2022-12-12T13:55:22.152Z,97343.97
2022-12-12T13:58:21.259Z,97345.47
2022-12-12T14:00:48.751Z,97341.88
2022-12-12T14:03:28.734Z,97340.31
2022-12-12T14:06:09.903Z,97337.56
2022-12-12T14:08:48.126Z,97353.91
2022-12-12T14:11:27.594Z,97343.91
2022-12-12T14:14:05.080Z,97346.72
2022-12-12T14:16:33.140Z,97347.16
2022-12-12T14:19:07.206Z,97344.66
2022-12-12T14:21:46.620Z,97338.66
2022-12-12T14:25:02.933Z,97340.50
2022-12-12T14:28:03.147Z,97349.06
2022-12-12T14:30:43.930Z,97351.09
2022-12-12T14:33:32.457Z,97343.75
2022-12-12T14:36:06.375Z,97336.22
2022-12-12T14:38:45.741Z,97345.13
2022-12-12T14:41:17.655Z,97337.97
2022-12-12T14:44:36.962Z,97343.78
2022-12-12T14:46:42.220Z,97345.88
2022-12-12T14:49:15.448Z,97349.75
2022-12-12T14:51:44.987Z,97351.63
2022-12-12T14:54:17.503Z,97347.94
2022-12-12T14:56:52.671Z,97349.63
2022-12-12T14:59:24.691Z,97341.31
2022-12-12T15:01:55.420Z,97347.00
2022-12-12T15:04:26.645Z,97346.72
2022-12-12T15:06:55.203Z,97347.28
2022-12-12T15:09:30.267Z,97341.16
2022-12-12T15:12:13.121Z,97349.22
2022-12-12T15:14:53.642Z,97343.69
2022-12-12T15:17:23.901Z,97356.72
2022-12-12T15:19:54.650Z,97352.69
2022-12-12T15:22:25.231Z,97346.41
2022-12-12T15:24:53.699Z,97351.84
2022-12-12T15:27:31.783Z,97357.81
2022-12-12T15:30:02.128Z,97354.63
2022-12-12T15:32:30.571Z,97350.88
2022-12-12T15:35:04.368Z,97348.69
2022-12-12T15:37:33.307Z,97353.94
2022-12-12T15:40:21.447Z,97356.41
2022-12-12T15:42:54.296Z,97355.59
2022-12-12T15:45:31.456Z,97354.06
2022-12-12T15:47:59.991Z,97357.53
2022-12-12T15:50:31.589Z,97349.09
2022-12-12T15:53:08.109Z,97350.06
2022-12-12T15:55:36.371Z,97352.00
2022-12-12T15:58:04.124Z,97348.53
2022-12-12T16:00:37.522Z,97346.16
2022-12-12T16:03:19.358Z,97351.69
2022-12-12T16:05:59.024Z,97355.47
2022-12-12T16:08:48.385Z,97361.00
2022-12-12T16:11:46.883Z,97358.50
2022-12-12T16:14:33.899Z,97363.63
2022-12-12T16:17:09.743Z,97365.44
2022-12-12T16:19:41.579Z,97366.53
2022-12-12T16:22:16.507Z,97358.91
2022-12-12T16:24:49.517Z,97360.03
2022-12-12T16:27:17.223Z,97361.81
2022-12-12T16:29:45.290Z,97360.44
2022-12-12T16:32:20.308Z,97361.50
2022-12-12T16:34:47.755Z,97371.75
2022-12-12T16:37:17.570Z,97375.66
2022-12-12T16:39:45.395Z,97377.03
2022-12-12T16:42:14.675Z,97376.59
2022-12-12T16:44:41.977Z,97369.53
2022-12-12T16:47:19.784Z,97370.38
2022-12-12T16:49:47.719Z,97370.75
2022-12-12T16:52:17.499Z,97370.19
2022-12-12T16:54:51.225Z,97372.41
2022-12-12T16:57:20.831Z,97368.38
2022-12-12T16:59:48.328Z,97373.50
2022-12-12T17:02:21.419Z,97371.72
2022-12-12T17:04:51.968Z,97373.06
2022-12-12T17:07:19.918Z,97376.53
2022-12-12T17:09:47.363Z,97370.88
2022-12-12T17:12:15.533Z,97372.91
2022-12-12T17:14:43.047Z,97383.31
2022-12-12T17:17:10.491Z,97383.19
2022-12-12T17:19:39.279Z,97377.59
2022-12-12T17:22:06.719Z,97372.75
2022-12-12T17:24:34.147Z,97371.94
2022-12-12T17:27:01.613Z,97368.84
2022-12-12T17:29:29.059Z,97365.97
2022-12-12T17:31:56.714Z,97357.34
2022-12-12T17:34:24.228Z,97374.78
2022-12-12T17:36:53.035Z,97373.22
2022-12-12T17:39:20.563Z,97375.56
2022-12-12T17:41:48.031Z,97385.81
2022-12-12T17:44:15.490Z,97385.97
2022-12-12T17:46:42.896Z,97377.34
2022-12-12T17:49:10.358Z,97388.16
2022-12-12T17:51:38.127Z,97393.59
2022-12-12T17:54:07.075Z,97391.59
2022-12-12T17:56:34.546Z,97387.84
2022-12-12T17:59:05.812Z,97386.44
2022-12-12T18:01:33.308Z,97388.09
2022-12-12T18:04:02.716Z,97389.88
2022-12-12T18:06:31.341Z,97401.03
2022-12-12T18:08:58.871Z,97398.03
2022-12-12T18:11:31.270Z,97393.16
2022-12-12T18:14:01.322Z,97393.50
2022-12-12T18:16:30.923Z,97392.59
2022-12-12T18:18:59.083Z,97389.28
2022-12-12T18:21:58.973Z,97392.00
2022-12-12T18:24:17.737Z,97386.91
2022-12-12T18:26:47.540Z,97389.91
2022-12-12T18:29:15.038Z,97384.78
2022-12-12T18:31:42.643Z,97395.19
2022-12-12T18:34:10.467Z,97395.41
2022-12-12T18:36:37.964Z,97396.50
2022-12-12T18:39:06.819Z,97400.25
2022-12-12T18:41:36.618Z,97395.38
2022-12-12T18:44:07.876Z,97395.63
2022-12-12T18:46:42.315Z,97399.06
2022-12-12T18:49:13.483Z,97397.91
2022-12-12T18:51:40.940Z,97391.81
2022-12-12T18:54:14.192Z,97399.28
2022-12-12T18:56:43.404Z,97397.06
2022-12-12T18:59:12.488Z,97403.13
2022-12-12T19:01:40.145Z,97402.84
2022-12-12T19:04:13.113Z,97411.41
2022-12-12T19:06:43.986Z,97406.81
2022-12-12T19:09:15.186Z,97407.16
2022-12-12T19:11:43.257Z,97411.00
2022-12-12T19:14:14.063Z,97404.44
2022-12-12T19:16:41.706Z,97411.84
2022-12-12T19:19:10.067Z,97399.56
2022-12-12T19:21:38.365Z,97406.59
2022-12-12T19:24:09.078Z,97408.28
2022-12-12T19:26:36.869Z,97410.06
2022-12-12T19:29:07.361Z,97403.28
2022-12-12T19:31:36.402Z,97404.13
2022-12-12T19:34:04.931Z,97404.88
2022-12-12T19:36:32.844Z,97396.16
2022-12-12T19:39:02.854Z,97402.72
2022-12-12T19:41:30.673Z,97396.66
2022-12-12T19:44:01.387Z,97398.47
2022-12-12T19:46:30.913Z,97402.03
2022-12-12T19:49:01.918Z,97401.09
2022-12-12T19:51:32.432Z,97403.13
2022-12-12T19:54:01.498Z,97405.16
2022-12-12T19:56:30.305Z,97414.69
2022-12-12T19:58:58.657Z,97415.53
2022-12-12T20:01:28.802Z,97420.31
2022-12-12T20:03:58.563Z,97415.38
2022-12-12T20:06:27.527Z,97420.03
2022-12-12T20:08:55.531Z,97421.63
2022-12-12T20:11:24.523Z,97416.03
2022-12-12T20:13:53.307Z,97419.59
2022-12-12T20:16:23.198Z,97408.66
2022-12-12T20:18:51.059Z,97408.16
2022-12-12T20:21:51.846Z,97411.53
2022-12-12T20:24:09.905Z,97407.38
2022-12-12T20:26:39.272Z,97408.56
2022-12-12T20:29:07.358Z,97415.72
2022-12-12T20:31:37.466Z,97412.00
2022-12-12T20:34:05.162Z,97405.09
2022-12-12T20:36:34.095Z,97407.16
2022-12-12T20:39:03.421Z,97405.72
2022-12-12T20:41:33.583Z,97409.41
2022-12-12T20:44:01.812Z,97416.81
2022-12-12T20:46:31.655Z,97416.59
2022-12-12T20:49:00.485Z,97413.72
2022-12-12T20:51:54.746Z,97426.44
2022-12-12T20:54:21.286Z,97422.03
2022-12-12T20:56:50.972Z,97422.41
2022-12-12T20:59:18.483Z,97414.44
2022-12-12T21:01:47.476Z,97418.03
2022-12-12T21:04:15.658Z,97419.81
2022-12-12T21:06:48.040Z,97409.94
2022-12-12T21:09:22.725Z,97409.31
2022-12-12T21:11:52.990Z,97412.31
2022-12-12T21:14:20.341Z,97407.19
2022-12-12T21:16:48.150Z,97409.31
2022-12-12T21:19:17.046Z,97408.97
2022-12-12T21:21:44.775Z,97402.53
2022-12-12T21:24:13.914Z,97412.09
2022-12-12T21:26:41.559Z,97400.41
2022-12-12T21:29:10.708Z,97393.38
2022-12-12T21:31:48.221Z,97403.25
2022-12-12T21:34:17.692Z,97402.81
2022-12-12T21:36:45.603Z,97410.78
2022-12-12T21:39:13.477Z,97410.69
2022-12-12T21:41:43.556Z,97406.84
2022-12-12T21:44:12.442Z,97415.78
2022-12-12T21:46:41.678Z,97403.53
2022-12-12T21:49:25.961Z,97406.63
2022-12-12T21:51:54.432Z,97402.78
2022-12-12T21:54:22.565Z,97400.53
2022-12-12T21:56:50.560Z,97401.59
2022-12-12T21:59:19.383Z,97397.19
2022-12-12T22:01:46.821Z,97407.56
2022-12-12T22:04:15.052Z,97401.75
2022-12-12T22:06:45.267Z,97407.09
2022-12-12T22:09:13.289Z,97404.13
2022-12-12T22:11:49.130Z,97401.84
2022-12-12T22:14:20.324Z,97399.81
2022-12-12T22:16:47.949Z,97398.88
2022-12-12T22:19:17.352Z,97393.63
2022-12-12T22:21:45.874Z,97385.03
2022-12-12T22:24:13.608Z,97388.75
2022-12-12T22:26:42.796Z,97383.50
2022-12-12T22:29:13.102Z,97389.34
2022-12-12T22:31:42.725Z,97383.88
2022-12-12T22:34:13.357Z,97380.91
2022-12-12T22:36:41.671Z,97389.00
2022-12-12T22:39:13.502Z,97390.28
2022-12-12T22:41:41.163Z,97385.66
2022-12-12T22:44:08.817Z,97384.34
2022-12-12T22:46:42.134Z,97385.78
2022-12-12T22:49:14.389Z,97381.25
2022-12-12T22:51:42.831Z,97378.28
2022-12-12T22:54:10.522Z,97378.53
2022-12-12T22:56:39.371Z,97383.97
2022-12-12T22:59:07.301Z,97380.75
2022-12-12T23:01:35.315Z,97370.28
2022-12-12T23:04:02.932Z,97373.50
2022-12-12T23:06:33.722Z,97370.53
2022-12-12T23:09:03.332Z,97370.28
2022-12-12T23:11:31.791Z,97366.59
2022-12-12T23:14:01.860Z,97369.94
2022-12-12T23:16:30.819Z,97369.34
2022-12-12T23:18:59.853Z,97370.03
2022-12-12T23:21:28.077Z,97362.91
2022-12-12T23:23:57.151Z,97368.16
2022-12-12T23:26:29.432Z,97364.47
2022-12-12T23:28:57.313Z,97360.66
2022-12-12T23:31:27.032Z,97362.44
2022-12-12T23:33:56.444Z,97357.19
2022-12-12T23:36:24.711Z,97366.34
2022-12-12T23:38:57.665Z,97350.28
2022-12-12T23:41:25.679Z,97362.19
2022-12-12T23:43:55.385Z,97357.88
2022-12-12T23:46:29.807Z,97356.34
2022-12-12T23:48:57.971Z,97354.81
2022-12-12T23:51:26.860Z,97357.28
2022-12-12T23:53:57.566Z,97355.50
2022-12-12T23:56:25.291Z,97354.69
2022-12-12T23:58:53.134Z,97363.97
